createdAt,value
2022-08-12T00:00:50.992Z,9.25
2022-08-12T00:04:14.876Z,5.50
2022-08-12T00:07:36.865Z,10.25
2022-08-12T00:10:59.134Z,6.25
2022-08-12T00:14:30.876Z,7.00
2022-08-12T00:17:54.670Z,8.50
2022-08-12T00:21:18.255Z,9.50
2022-08-12T00:24:42.538Z,5.75
2022-08-12T00:28:05.313Z,10.00
2022-08-12T00:31:28.929Z,9.25
2022-08-12T00:34:52.563Z,7.75
2022-08-12T00:38:15.938Z,8.00
2022-08-12T00:41:40.123Z,8.00
2022-08-12T00:44:48.219Z,8.00
2022-08-12T00:47:55.469Z,10.25
2022-08-12T00:51:03.319Z,6.75
2022-08-12T00:54:08.964Z,9.25
2022-08-12T00:57:15.883Z,8.25
2022-08-12T01:00:23.247Z,7.75
2022-08-12T01:03:49.151Z,7.00
2022-08-12T01:07:13.805Z,7.00
2022-08-12T01:10:37.618Z,8.25
2022-08-12T01:13:45.120Z,7.00
2022-08-12T01:16:49.874Z,7.50
2022-08-12T01:19:57.276Z,9.50
2022-08-12T01:23:20.891Z,9.00
2022-08-12T01:26:28.963Z,6.00
2022-08-12T01:29:35.228Z,5.50
2022-08-12T01:32:42.628Z,8.75
2022-08-12T01:36:08.020Z,6.67
2022-08-12T01:39:16.960Z,7.00
2022-08-12T01:42:25.525Z,9.50
2022-08-12T01:45:42.917Z,7.25
2022-08-12T01:49:12.584Z,6.50
2022-08-12T01:52:30.293Z,7.75
2022-08-12T01:55:37.536Z,7.50
2022-08-12T01:58:59.369Z,6.75
2022-08-12T02:02:08.752Z,6.25
2022-08-12T02:05:41.162Z,7.50
2022-08-12T02:09:17.329Z,8.75
2022-08-12T02:12:35.757Z,7.00
2022-08-12T02:15:50.696Z,6.00
2022-08-12T02:19:22.864Z,7.50
2022-08-12T02:22:30.587Z,6.25
2022-08-12T02:25:38.323Z,8.00
2022-08-12T02:28:42.975Z,8.75
2022-08-12T02:31:51.026Z,7.00
2022-08-12T02:34:57.724Z,6.50
2022-08-12T02:38:05.181Z,6.00
2022-08-12T02:41:12.915Z,7.75
2022-08-12T02:44:24.394Z,7.25
2022-08-12T02:47:58.155Z,8.50
2022-08-12T02:51:06.029Z,6.00
2022-08-12T02:54:13.761Z,7.00
2022-08-12T02:57:20.479Z,5.50
2022-08-12T03:00:25.364Z,7.00
2022-08-12T03:03:33.629Z,7.00
2022-08-12T03:06:45.496Z,6.00
2022-08-12T03:10:04.462Z,7.75
2022-08-12T03:13:12.673Z,6.25
2022-08-12T03:16:19.108Z,10.00
2022-08-12T03:19:25.949Z,8.75
2022-08-12T03:22:32.252Z,11.00
2022-08-12T03:25:40.347Z,6.00
2022-08-12T03:28:54.493Z,5.00
2022-08-12T03:32:04.804Z,7.75
2022-08-12T03:35:40.874Z,8.75
2022-08-12T03:38:43.346Z,6.50
2022-08-12T03:41:57.962Z,6.00
2022-08-12T03:45:50.081Z,6.00
2022-08-12T03:49:15.754Z,8.75
2022-08-12T03:52:38.596Z,8.00
2022-08-12T03:56:01.037Z,6.00
2022-08-12T03:59:24.706Z,7.75
2022-08-12T04:02:34.683Z,9.25
2022-08-12T04:05:55.322Z,4.25
2022-08-12T04:09:01.756Z,11.00
2022-08-12T04:12:27.429Z,6.00
2022-08-12T04:15:37.033Z,9.50
2022-08-12T04:18:42.486Z,10.00
2022-08-12T04:22:02.457Z,7.75
2022-08-12T04:25:14.070Z,5.00
2022-08-12T04:28:17.834Z,5.00
2022-08-12T04:31:32.022Z,6.50
2022-08-12T04:34:38.316Z,6.25
2022-08-12T04:37:58.627Z,7.25
2022-08-12T04:41:06.868Z,6.75
2022-08-12T04:44:11.598Z,8.00
2022-08-12T04:47:16.630Z,8.50
2022-08-12T04:50:33.871Z,7.33
2022-08-12T04:53:39.442Z,7.00
2022-08-12T04:57:03.066Z,8.33
2022-08-12T05:00:11.457Z,6.33
2022-08-12T05:03:15.411Z,10.00
2022-08-12T05:06:26.402Z,7.00
2022-08-12T05:09:59.237Z,9.00
2022-08-12T05:13:01.287Z,9.67
2022-08-12T05:16:09.760Z,7.00
2022-08-12T05:19:18.623Z,8.67
2022-08-12T05:22:27.503Z,10.00
2022-08-12T05:25:31.196Z,11.33
2022-08-12T05:28:38.399Z,7.00
2022-08-12T05:31:48.045Z,11.00
2022-08-12T05:34:53.722Z,12.33
2022-08-12T05:38:11.292Z,16.67
2022-08-12T05:41:20.661Z,18.33
2022-08-12T05:44:25.956Z,9.67
2022-08-12T05:47:40.688Z,7.00
2022-08-12T05:50:55.402Z,7.00
2022-08-12T05:54:00.256Z,5.67
2022-08-12T05:57:04.491Z,6.67
2022-08-12T06:00:11.266Z,7.67
2022-08-12T06:03:19.382Z,7.67
2022-08-12T06:06:27.680Z,6.00
2022-08-12T06:09:31.600Z,9.67
2022-08-12T06:12:35.502Z,8.33
2022-08-12T06:15:41.237Z,6.00
2022-08-12T06:18:46.749Z,6.67
2022-08-12T06:21:51.793Z,8.00
2022-08-12T06:24:56.719Z,7.33
2022-08-12T06:28:07.391Z,8.00
2022-08-12T06:31:27.035Z,5.67
2022-08-12T06:35:25.314Z,5.67
2022-08-12T06:38:03.801Z,7.00
2022-08-12T06:41:24.434Z,7.00
2022-08-12T06:44:28.678Z,5.67
2022-08-12T06:47:37.802Z,8.00
2022-08-12T06:50:44.577Z,7.00
2022-08-12T06:53:50.676Z,7.67
2022-08-12T06:58:06.140Z,5.00
2022-08-12T07:00:22.625Z,9.67
2022-08-12T07:03:37.673Z,6.67
2022-08-12T07:06:44.156Z,1.00
2022-08-12T07:10:04.681Z,4.00
2022-08-12T07:13:11.491Z,5.00
2022-08-12T07:16:17.556Z,5.00
2022-08-12T07:19:22.947Z,5.00
2022-08-12T07:22:27.447Z,4.33
2022-08-12T07:25:41.141Z,4.00
2022-08-12T07:28:50.713Z,5.00
2022-08-12T07:31:54.923Z,5.00
2022-08-12T07:35:00.998Z,3.00
2022-08-12T07:38:04.723Z,3.00
2022-08-12T07:41:15.694Z,2.67
2022-08-12T07:44:19.607Z,4.33
2022-08-12T07:47:23.741Z,1.00
2022-08-12T07:50:28.934Z,5.33
2022-08-12T07:53:47.709Z,4.33
2022-08-12T07:57:01.220Z,4.00
2022-08-12T08:00:06.823Z,3.67
2022-08-12T08:03:17.164Z,4.00
2022-08-12T08:06:22.568Z,3.67
2022-08-12T08:09:26.151Z,4.33
2022-08-12T08:12:48.770Z,4.00
2022-08-12T08:16:03.479Z,4.33
2022-08-12T08:19:08.559Z,3.67
2022-08-12T08:22:13.562Z,2.33
2022-08-12T08:25:34.264Z,3.67
2022-08-12T08:28:40.452Z,2.00
2022-08-12T08:31:50.404Z,2.00
2022-08-12T08:34:54.879Z,3.00
2022-08-12T08:38:11.464Z,3.00
2022-08-12T08:42:16.577Z,4.00
2022-08-12T08:44:58.912Z,3.00
2022-08-12T08:48:04.548Z,4.00
2022-08-12T08:51:08.470Z,5.00
2022-08-12T08:54:15.505Z,5.00
2022-08-12T08:57:22.495Z,4.00
2022-08-12T09:00:26.368Z,4.00
2022-08-12T09:05:07.460Z,3.00
2022-08-12T09:06:56.745Z,5.67
2022-08-12T09:10:04.229Z,3.33
2022-08-12T09:13:29.241Z,4.67
2022-08-12T09:16:51.307Z,4.00
2022-08-12T09:24:00.313Z,4.00
2022-08-12T09:26:55.637Z,7.00
2022-08-12T09:30:10.867Z,5.67
2022-08-12T09:34:24.577Z,5.00
2022-08-12T09:37:00.488Z,5.00
2022-08-12T09:40:58.083Z,7.00
2022-08-12T09:43:53.924Z,5.00
2022-08-12T09:47:04.511Z,6.00
2022-08-12T09:50:20.327Z,6.00
2022-08-12T09:53:36.599Z,4.00
2022-08-12T09:56:59.778Z,5.67
2022-08-12T10:00:12.782Z,5.00
2022-08-12T10:03:31.816Z,5.33
2022-08-12T10:06:55.269Z,6.00
2022-08-12T10:10:02.435Z,6.00
2022-08-12T10:13:38.113Z,5.00
2022-08-12T10:16:49.434Z,5.00
2022-08-12T10:19:53.947Z,5.33
2022-08-12T10:23:00.267Z,4.67
2022-08-12T10:26:36.997Z,6.00
2022-08-12T10:30:37.105Z,6.00
2022-08-12T10:33:18.270Z,7.00
2022-08-12T10:36:36.146Z,6.00
2022-08-12T10:40:02.094Z,8.00
2022-08-12T10:43:27.920Z,10.00
2022-08-12T10:46:33.208Z,7.33
2022-08-12T10:50:02.280Z,5.00
2022-08-12T10:53:09.531Z,7.67
2022-08-12T10:56:13.635Z,4.33
2022-08-12T10:59:17.801Z,7.00
2022-08-12T11:04:22.844Z,7.00
2022-08-12T11:07:08.843Z,8.67
2022-08-12T11:10:00.751Z,8.67
2022-08-12T11:13:08.389Z,10.67
2022-08-12T11:16:18.994Z,7.33
2022-08-12T11:19:26.365Z,10.33
2022-08-12T11:22:37.265Z,10.00
2022-08-12T11:25:56.849Z,9.00
2022-08-12T11:29:06.070Z,8.00
2022-08-12T11:32:27.290Z,8.67
2022-08-12T11:35:36.441Z,5.00
2022-08-12T11:38:43.202Z,6.33
2022-08-12T11:41:56.056Z,9.00
2022-08-12T11:45:05.087Z,13.33
2022-08-12T11:48:09.318Z,10.00
2022-08-12T11:51:19.240Z,7.67
2022-08-12T11:54:26.684Z,7.67
2022-08-12T11:58:51.224Z,9.67
2022-08-12T12:04:28.880Z,7.33
2022-08-12T12:08:41.760Z,7.67
2022-08-12T12:10:59.387Z,8.33
2022-08-12T12:14:07.301Z,9.00
2022-08-12T12:17:16.774Z,9.00
2022-08-12T12:20:20.878Z,8.00
2022-08-12T12:23:30.917Z,10.00
2022-08-12T12:26:42.182Z,10.00
2022-08-12T12:30:18.042Z,8.00
2022-08-12T12:33:17.667Z,9.33
2022-08-12T12:36:30.241Z,10.67
2022-08-12T12:39:54.739Z,9.00
2022-08-12T12:43:05.234Z,8.00
2022-08-12T12:46:09.681Z,9.33
2022-08-12T12:49:15.245Z,8.00
2022-08-12T12:52:21.350Z,7.67
2022-08-12T12:55:26.123Z,10.00
2022-08-12T12:58:43.520Z,11.00
2022-08-12T13:01:47.850Z,10.33
2022-08-12T13:04:54.548Z,9.67
2022-08-12T13:08:04.061Z,10.33
2022-08-12T13:11:11.044Z,7.00
2022-08-12T13:14:27.913Z,11.67
2022-08-12T13:18:03.131Z,9.00
2022-08-12T13:20:59.373Z,11.67
2022-08-12T13:24:10.558Z,11.00
2022-08-12T13:27:19.203Z,7.33
2022-08-12T13:30:28.386Z,12.67
2022-08-12T13:34:32.795Z,10.67
2022-08-12T13:36:57.424Z,11.00
2022-08-12T13:40:01.182Z,9.33
2022-08-12T13:43:07.072Z,7.00
2022-08-12T13:46:15.474Z,6.67
2022-08-12T13:49:55.144Z,7.33
2022-08-12T13:52:43.568Z,9.00
2022-08-12T13:55:59.542Z,7.33
2022-08-12T13:59:07.865Z,10.67
2022-08-12T14:02:14.746Z,11.00
2022-08-12T14:05:37.533Z,9.00
2022-08-12T14:08:45.005Z,10.00
2022-08-12T14:11:59.567Z,9.67
2022-08-12T14:15:05.017Z,9.00
2022-08-12T14:18:15.893Z,10.00
2022-08-12T14:21:22.451Z,9.00
2022-08-12T14:24:27.045Z,5.00
2022-08-12T14:28:03.707Z,8.00
2022-08-12T14:31:00.181Z,9.00
2022-08-12T14:34:06.544Z,10.00
2022-08-12T14:37:13.127Z,8.00
2022-08-12T14:40:34.355Z,6.67
2022-08-12T14:43:44.291Z,9.67
2022-08-12T14:47:07.492Z,10.00
2022-08-12T14:50:37.281Z,9.00
2022-08-12T14:57:20.300Z,11.67
2022-08-12T15:00:52.345Z,12.00
2022-08-12T15:03:58.544Z,9.33
2022-08-12T15:07:03.990Z,10.33
2022-08-12T15:10:08.361Z,12.00
2022-08-12T15:13:13.850Z,9.67
2022-08-12T15:16:18.882Z,9.00
2022-08-12T15:20:30.720Z,10.00
2022-08-12T15:22:53.599Z,13.00
2022-08-12T15:26:03.343Z,13.00
2022-08-12T15:29:07.531Z,12.67
2022-08-12T15:32:15.888Z,13.00
2022-08-12T15:35:20.374Z,12.67
2022-08-12T15:38:28.305Z,12.67
2022-08-12T15:41:50.039Z,13.00
2022-08-12T15:44:55.627Z,10.67
2022-08-12T15:48:16.105Z,12.00
2022-08-12T15:51:57.521Z,10.00
2022-08-12T15:54:58.480Z,10.00
2022-08-12T15:58:04.213Z,11.00
2022-08-12T16:01:12.274Z,11.67
2022-08-12T16:04:19.066Z,12.00
2022-08-12T16:07:29.891Z,13.67
2022-08-12T16:10:38.398Z,11.67
2022-08-12T16:13:44.119Z,11.00
2022-08-12T16:16:49.131Z,12.33
2022-08-12T16:20:03.244Z,12.33
2022-08-12T16:23:26.241Z,13.67
2022-08-12T16:26:35.070Z,12.00
2022-08-12T16:29:52.350Z,13.67
2022-08-12T16:32:59.580Z,12.00
2022-08-12T16:36:13.339Z,14.33
2022-08-12T16:39:24.475Z,12.00
2022-08-12T16:42:29.812Z,13.00
2022-08-12T16:46:24.041Z,11.00
2022-08-12T16:49:04.174Z,15.00
2022-08-12T16:52:14.609Z,11.00
2022-08-12T16:55:20.611Z,12.33
2022-08-12T16:58:30.685Z,12.00
2022-08-12T17:01:37.684Z,12.00
2022-08-12T17:04:52.924Z,13.00
2022-08-12T17:07:57.688Z,11.33
2022-08-12T17:11:01.140Z,9.00
2022-08-12T17:14:08.493Z,12.33
2022-08-12T17:17:18.563Z,12.33
2022-08-12T17:20:36.580Z,9.67
2022-08-12T17:23:53.406Z,10.00
2022-08-12T17:26:58.486Z,11.67
2022-08-12T17:30:05.526Z,10.00
2022-08-12T17:33:13.988Z,9.33
2022-08-12T17:36:21.664Z,8.00
2022-08-12T17:40:06.752Z,9.33
2022-08-12T17:42:57.478Z,9.67
2022-08-12T17:46:03.630Z,15.33
2022-08-12T17:50:01.478Z,10.00
2022-08-12T17:52:38.770Z,11.00
2022-08-12T17:55:48.140Z,10.67
2022-08-12T17:58:58.168Z,9.67
2022-08-12T18:02:07.285Z,9.00
2022-08-12T18:05:11.260Z,11.00
2022-08-12T18:08:18.031Z,9.00
2022-08-12T18:12:06.323Z,8.00
2022-08-12T18:15:26.227Z,8.00
2022-08-12T18:18:38.606Z,12.00
2022-08-12T18:22:01.541Z,9.67
2022-08-12T18:26:12.773Z,6.00
2022-08-12T18:28:40.687Z,7.67
2022-08-12T18:31:58.806Z,7.00
2022-08-12T18:35:10.514Z,10.67
2022-08-12T18:38:18.429Z,8.00
2022-08-12T18:41:34.248Z,9.00
2022-08-12T18:44:39.911Z,10.67
2022-08-12T18:47:51.941Z,8.00
2022-08-12T18:51:10.561Z,9.00
2022-08-12T18:54:27.401Z,11.00
2022-08-12T18:58:06.794Z,7.00
2022-08-12T19:00:59.239Z,11.00
2022-08-12T19:04:06.553Z,9.00
2022-08-12T19:07:19.333Z,11.67
2022-08-12T19:10:24.628Z,8.00
2022-08-12T19:13:48.215Z,10.67
2022-08-12T19:16:52.573Z,8.67
2022-08-12T19:19:57.258Z,11.67
2022-08-12T19:23:08.240Z,10.00
2022-08-12T19:26:26.963Z,9.67
2022-08-12T19:29:39.719Z,9.33
2022-08-12T19:32:48.957Z,11.00
2022-08-12T19:36:24.726Z,8.33
2022-08-12T19:39:25.807Z,11.00
2022-08-12T19:42:36.178Z,9.33
2022-08-12T19:45:48.756Z,7.00
2022-08-12T19:48:58.412Z,10.33
2022-08-12T19:52:12.255Z,13.00
2022-08-12T19:55:30.169Z,14.67
2022-08-12T19:58:42.051Z,10.00
2022-08-12T20:02:02.229Z,12.00
2022-08-12T20:06:03.227Z,11.00
2022-08-12T20:08:36.258Z,11.00
2022-08-12T20:12:11.830Z,10.00
2022-08-12T20:15:14.233Z,9.67
2022-08-12T20:18:19.255Z,11.67
2022-08-12T20:21:43.901Z,11.33
2022-08-12T20:24:49.663Z,9.00
2022-08-12T20:28:05.524Z,10.67
2022-08-12T20:31:12.114Z,13.33
2022-08-12T20:34:17.973Z,10.00
2022-08-12T20:38:06.906Z,10.33
2022-08-12T20:40:57.781Z,10.33
2022-08-12T20:44:03.683Z,12.00
2022-08-12T20:47:19.409Z,10.67
2022-08-12T20:50:27.515Z,10.33
2022-08-12T20:53:57.792Z,9.33
2022-08-12T20:57:01.221Z,11.67
2022-08-12T21:00:16.758Z,10.33
2022-08-12T21:03:37.873Z,13.00
2022-08-12T21:06:58.251Z,12.33
2022-08-12T21:10:12.584Z,10.00
2022-08-12T21:13:20.464Z,11.67
2022-08-12T21:16:31.434Z,11.00
2022-08-12T21:19:52.864Z,10.33
2022-08-12T21:22:59.310Z,11.00
2022-08-12T21:26:11.364Z,10.00
2022-08-12T21:29:23.839Z,11.33
2022-08-12T21:32:40.697Z,10.00
2022-08-12T21:35:45.043Z,9.33
2022-08-12T21:38:59.598Z,9.67
2022-08-12T21:42:07.500Z,10.33
2022-08-12T21:45:46.867Z,8.33
2022-08-12T21:48:40.150Z,9.00
2022-08-12T21:51:49.245Z,8.33
2022-08-12T21:54:56.387Z,8.00
2022-08-12T21:58:11.329Z,7.00
2022-08-12T22:01:22.759Z,6.67
2022-08-12T22:04:49.962Z,8.00
2022-08-12T22:08:00.764Z,10.33
2022-08-12T22:11:05.187Z,8.33
2022-08-12T22:14:17.867Z,7.33
2022-08-12T22:17:49.569Z,11.00
2022-08-12T22:20:56.861Z,13.00
2022-08-12T22:24:05.798Z,9.00
2022-08-12T22:27:28.596Z,13.67
2022-08-12T22:30:54.479Z,11.00
2022-08-12T22:34:00.324Z,11.67
2022-08-12T22:37:11.476Z,11.00
2022-08-12T22:40:24.092Z,9.67
2022-08-12T22:44:00.522Z,9.33
2022-08-12T22:47:53.595Z,9.67
2022-08-12T22:50:47.661Z,13.33
2022-08-12T22:53:56.781Z,11.00
2022-08-12T22:57:05.308Z,9.33
2022-08-12T23:00:24.259Z,10.50
2022-08-12T23:03:49.190Z,9.00
2022-08-12T23:06:58.454Z,9.67
2022-08-12T23:10:12.675Z,8.67
2022-08-12T23:13:43.435Z,10.00
2022-08-12T23:16:52.353Z,11.67
2022-08-12T23:19:56.330Z,10.67
2022-08-12T23:23:08.878Z,10.00
2022-08-12T23:26:14.516Z,12.33
2022-08-12T23:29:25.966Z,12.00
2022-08-12T23:32:35.614Z,7.67
2022-08-12T23:35:45.505Z,11.67
2022-08-12T23:39:01.629Z,11.00
2022-08-12T23:42:17.880Z,11.50
2022-08-12T23:45:32.033Z,12.00
2022-08-12T23:48:40.039Z,13.00
2022-08-12T23:51:44.796Z,11.00
2022-08-12T23:54:58.405Z,13.00
2022-08-12T23:58:25.882Z,11.33
